This is the latest recevied weather packets stored in our database for station/object OK0EK-12. If no packets are shown the sender has not sent any weather packets the latest 10 day(s).
| Time | Temp. | Humidity | Pressure | Rain* | Wind** | Luminosity | Snow |
|---|---|---|---|---|---|---|---|
| 1777489491 | 3.89° C | 41% | 1108.1 hPa | - | - | - | - |
| 1777488893 | 3.89° C | 41% | 1108 hPa | - | - | - | - |
| 1777488292 | 4.44° C | 39% | 1107.8 hPa | - | - | - | - |
| 1777487692 | 4.44° C | 38% | 1107.7 hPa | - | - | - | - |
| 1777487091 | 5° C | 37% | 1107.6 hPa | - | - | - | - |
| 1777486490 | 5° C | 36% | 1107.5 hPa | - | - | - | - |
| 1777485889 | 5.56° C | 35% | 1107.3 hPa | - | - | - | - |
| 1777485288 | 5.56° C | 35% | 1107.2 hPa | - | - | - | - |
| 1777484688 | 6.11° C | 34% | 1107.3 hPa | - | - | - | - |
| 1777484087 | 6.11° C | 33% | 1107.1 hPa | - | - | - | - |
| 1777483486 | 6.67° C | 32% | 1107 hPa | - | - | - | - |
| 1777482885 | 6.67° C | 31% | 1106.8 hPa | - | - | - | - |
| 1777482285 | 7.22° C | 31% | 1106.8 hPa | - | - | - | - |
| 1777481684 | 7.22° C | 30% | 1106.6 hPa | - | - | - | - |
| 1777481083 | 7.78° C | 30% | 1106.5 hPa | - | - | - | - |
| 1777480482 | 7.78° C | 30% | 1106.5 hPa | - | - | - | - |
| 1777479882 | 8.33° C | 28% | 1106.4 hPa | - | - | - | - |
| 1777479281 | 8.33° C | 29% | 1106.3 hPa | - | - | - | - |
| 1777478680 | 8.33° C | 27% | 1106.3 hPa | - | - | - | - |
| 1777478079 | 9.44° C | 26% | 1106.1 hPa | - | - | - | - |
| 1777477478 | 11.11° C | 24% | 1106 hPa | - | - | - | - |
| 1777476878 | 11.67° C | 23% | 1106 hPa | - | - | - | - |
| 1777476285 | 11.11° C | 25% | 1106 hPa | - | - | - | - |
| 1777475678 | 12.78° C | 22% | 1105.9 hPa | - | - | - | - |
| 1777475078 | 12.22° C | 23% | 1105.9 hPa | - | - | - | - |
* Rain since midnight (hover to see other rain measurements)
** Current wind speed in m/s (hover to see current wind gust speed)